Time;durP1;ratioP1;P1;durP2;ratioP2;P2;SDS_P1;SDS_P2;PMS_P1;PMS_P2;Temp;Humidity;BMP_temperature;BMP_pressure;BME280_temperature;BME280_humidity;BME280_pressure;Samples;Min_cycle;Max_cycle;Signal;HPM_P1;HPM_P2
2024/01/18 00:02:12;;;;;;;23.30;1.92;;;;;;;;;;4997238;28;20073;-40
2024/01/18 00:04:41;;;;;;;22.20;1.67;;;;;;;;;;5006295;28;20033;-41
2024/01/18 00:07:08;;;;;;;16.25;1.70;;;;;;;;;;5009621;28;20744;-40
2024/01/18 00:09:35;;;;;;;18.02;1.90;;;;;;;;;;5009395;28;20494;-41
2024/01/18 00:12:02;;;;;;;14.20;1.67;;;;;;;;;;5001850;28;20042;-40
2024/01/18 00:14:29;;;;;;;17.67;2.17;;;;;;;;;;5006691;28;20037;-40
2024/01/18 00:16:56;;;;;;;9.32;1.67;;;;;;;;;;4998812;28;20049;-40
2024/01/18 00:19:23;;;;;;;22.45;2.53;;;;;;;;;;4999956;28;20034;-41
2024/01/18 00:21:50;;;;;;;22.60;3.50;;;;;;;;;;4994067;28;20038;-40
2024/01/18 00:24:17;;;;;;;28.45;2.90;;;;;;;;;;4994065;28;20030;-40
2024/01/18 00:26:44;;;;;;;17.67;2.28;;;;;;;;;;4992818;28;20527;-40
2024/01/18 00:29:13;;;;;;;15.70;2.35;;;;;;;;;;5006069;28;20034;-41
2024/01/18 00:31:41;;;;;;;16.88;2.08;;;;;;;;;;5010911;28;20503;-40
2024/01/18 00:34:08;;;;;;;23.08;2.13;;;;;;;;;;5013308;28;20025;-41
2024/01/18 00:36:34;;;;;;;14.85;2.25;;;;;;;;;;4999148;28;20040;-40
2024/01/18 00:39:08;;;;;;;16.90;1.98;;;;;;;;;;5011044;28;20064;-40
2024/01/18 00:41:38;;;;;;;10.23;1.80;;;;;;;;;;5003187;28;20157;-40
2024/01/18 00:44:05;;;;;;;14.20;1.52;;;;;;;;;;5000698;28;20041;-40
2024/01/18 00:46:32;;;;;;;9.82;1.30;;;;;;;;;;5004911;28;20033;-40
2024/01/18 00:48:59;;;;;;;16.85;1.70;;;;;;;;;;5001066;28;20073;-39
2024/01/18 00:51:26;;;;;;;18.00;1.90;;;;;;;;;;5001273;28;20121;-40
2024/01/18 00:53:53;;;;;;;9.63;1.65;;;;;;;;;;5006366;28;20039;-40
2024/01/18 00:56:20;;;;;;;10.30;1.35;;;;;;;;;;5008945;28;20025;-40
2024/01/18 00:58:49;;;;;;;12.38;1.63;;;;;;;;;;5008225;28;20084;-40
2024/01/18 01:01:17;;;;;;;10.98;2.28;;;;;;;;;;5005293;28;20034;-40
2024/01/18 01:03:43;;;;;;;12.88;2.17;;;;;;;;;;5003949;28;20030;-40
2024/01/18 01:06:11;;;;;;;11.18;2.15;;;;;;;;;;5004841;28;20117;-41
2024/01/18 01:08:38;;;;;;;10.65;2.03;;;;;;;;;;5009252;28;20026;-40
2024/01/18 01:11:08;;;;;;;12.15;1.83;;;;;;;;;;5011062;28;20037;-40
2024/01/18 01:13:35;;;;;;;9.52;1.83;;;;;;;;;;5004559;28;20038;-40
2024/01/18 01:16:02;;;;;;;21.75;2.00;;;;;;;;;;5002950;28;20033;-40
2024/01/18 01:18:29;;;;;;;19.95;2.22;;;;;;;;;;4996415;28;20037;-40
2024/01/18 01:20:57;;;;;;;15.90;2.17;;;;;;;;;;5011111;28;20030;-41
2024/01/18 01:23:24;;;;;;;14.80;1.90;;;;;;;;;;5011013;28;20026;-40
2024/01/18 01:25:51;;;;;;;10.32;1.35;;;;;;;;;;5011018;28;20066;-40
2024/01/18 01:28:18;;;;;;;7.80;1.55;;;;;;;;;;5009332;28;20054;-40
2024/01/18 01:30:45;;;;;;;13.05;1.38;;;;;;;;;;5010728;28;20404;-40
2024/01/18 01:33:12;;;;;;;5.80;1.20;;;;;;;;;;5010836;28;20026;-40
2024/01/18 01:35:39;;;;;;;10.27;1.33;;;;;;;;;;5010780;28;20038;-40
2024/01/18 01:38:06;;;;;;;8.05;1.50;;;;;;;;;;5010732;28;20026;-40
2024/01/18 01:40:33;;;;;;;10.10;1.80;;;;;;;;;;5010791;28;20048;-40
2024/01/18 01:43:00;;;;;;;20.08;2.88;;;;;;;;;;5000210;28;20026;-40
2024/01/18 01:45:27;;;;;;;6.47;2.33;;;;;;;;;;5004833;28;20389;-40
2024/01/18 01:47:54;;;;;;;10.27;1.75;;;;;;;;;;5013266;28;20387;-40
2024/01/18 01:50:21;;;;;;;10.25;2.00;;;;;;;;;;5014188;28;20165;-40
2024/01/18 01:52:48;;;;;;;6.63;1.50;;;;;;;;;;5014466;28;20118;-40
2024/01/18 01:55:15;;;;;;;6.05;1.30;;;;;;;;;;5014112;28;20030;-40
2024/01/18 01:57:46;;;;;;;20.40;2.28;;;;;;;;;;5004111;28;20467;-40
2024/01/18 02:00:14;;;;;;;12.68;1.80;;;;;;;;;;5003731;28;20099;-40
2024/01/18 02:02:43;;;;;;;11.80;1.52;;;;;;;;;;4999272;28;20037;-43
2024/01/18 02:05:10;;;;;;;8.48;1.63;;;;;;;;;;5005113;28;20025;-39
2024/01/18 02:07:37;;;;;;;3.67;1.20;;;;;;;;;;5007904;28;20030;-39
2024/01/18 02:10:06;;;;;;;10.98;1.35;;;;;;;;;;5012643;28;20551;-45
2024/01/18 02:12:34;;;;;;;12.50;1.20;;;;;;;;;;4995645;28;20026;-43
2024/01/18 02:15:01;;;;;;;19.52;1.80;;;;;;;;;;5003355;28;20033;-48
2024/01/18 02:17:29;;;;;;;19.17;1.77;;;;;;;;;;5004952;28;20036;-39
2024/01/18 02:19:57;;;;;;;9.80;1.30;;;;;;;;;;5013820;28;20089;-39
2024/01/18 02:22:27;;;;;;;12.02;1.33;;;;;;;;;;5013746;28;20029;-39
2024/01/18 02:25:02;;;;;;;9.45;1.00;;;;;;;;;;4996158;28;20037;-39
2024/01/18 02:27:29;;;;;;;8.27;1.10;;;;;;;;;;4995780;28;20050;-39
2024/01/18 02:29:56;;;;;;;10.30;1.20;;;;;;;;;;5008642;28;20040;-39
2024/01/18 02:32:23;;;;;;;8.82;1.30;;;;;;;;;;5013621;28;20065;-39
2024/01/18 02:34:50;;;;;;;4.85;0.95;;;;;;;;;;5013386;28;20030;-39
2024/01/18 02:37:17;;;;;;;10.75;1.20;;;;;;;;;;5013479;28;20033;-39
2024/01/18 02:39:44;;;;;;;11.60;1.55;;;;;;;;;;5011824;28;20040;-40
2024/01/18 02:42:11;;;;;;;15.70;1.63;;;;;;;;;;5003156;28;20022;-40
2024/01/18 02:44:38;;;;;;;20.35;1.67;;;;;;;;;;5002557;28;20084;-40
2024/01/18 02:47:05;;;;;;;19.52;1.67;;;;;;;;;;4994195;28;20030;-40
2024/01/18 02:49:36;;;;;;;7.97;1.33;;;;;;;;;;4999495;28;20079;-40
2024/01/18 02:52:03;;;;;;;13.03;1.40;;;;;;;;;;5000646;28;20046;-39
2024/01/18 02:54:30;;;;;;;12.60;1.30;;;;;;;;;;4998972;28;20034;-39
2024/01/18 02:56:58;;;;;;;29.75;1.50;;;;;;;;;;4995597;28;20030;-43
2024/01/18 02:59:24;;;;;;;25.83;1.95;;;;;;;;;;4977532;28;20123;-45
2024/01/18 03:01:51;;;;;;;19.63;1.63;;;;;;;;;;5004080;28;20038;-49
2024/01/18 03:04:19;;;;;;;25.08;1.70;;;;;;;;;;5009709;28;20113;-40
2024/01/18 03:06:46;;;;;;;23.55;2.60;;;;;;;;;;5009950;28;20030;-41
2024/01/18 03:09:14;;;;;;;30.83;2.35;;;;;;;;;;5011481;28;20056;-47
2024/01/18 03:11:41;;;;;;;18.63;1.85;;;;;;;;;;5012117;28;20042;-44
2024/01/18 03:14:08;;;;;;;16.45;1.60;;;;;;;;;;5011115;28;20105;-42
2024/01/18 03:16:37;;;;;;;14.32;1.20;;;;;;;;;;5010578;28;20476;-41
2024/01/18 03:19:04;;;;;;;12.25;1.70;;;;;;;;;;5010850;28;20025;-49
2024/01/18 03:21:31;;;;;;;15.05;2.47;;;;;;;;;;5010881;28;20014;-43
2024/01/18 03:23:59;;;;;;;14.40;1.95;;;;;;;;;;5009652;28;20033;-42
2024/01/18 03:26:26;;;;;;;25.88;2.00;;;;;;;;;;5011139;28;20026;-43
2024/01/18 03:28:53;;;;;;;14.95;1.70;;;;;;;;;;4990189;28;20045;-41
2024/01/18 03:31:21;;;;;;;9.50;1.45;;;;;;;;;;4991291;28;20043;-41
2024/01/18 03:33:48;;;;;;;10.45;1.60;;;;;;;;;;4989637;28;20401;-41
2024/01/18 03:36:16;;;;;;;19.27;1.58;;;;;;;;;;4990683;28;20030;-42
2024/01/18 03:38:44;;;;;;;16.33;1.55;;;;;;;;;;4990231;28;20034;-41
2024/01/18 03:41:11;;;;;;;27.63;2.55;;;;;;;;;;4990173;28;20066;-39
2024/01/18 03:43:38;;;;;;;23.20;1.92;;;;;;;;;;4990952;28;20412;-42
2024/01/18 03:46:05;;;;;;;19.40;1.65;;;;;;;;;;4990962;28;20041;-45
2024/01/18 03:48:32;;;;;;;29.35;1.70;;;;;;;;;;4990746;28;20038;-47
2024/01/18 03:50:59;;;;;;;17.63;1.75;;;;;;;;;;4990649;28;20034;-44
2024/01/18 03:53:26;;;;;;;25.75;1.80;;;;;;;;;;4991016;28;20034;-39
2024/01/18 03:55:53;;;;;;;15.57;1.35;;;;;;;;;;4991763;28;20026;-41
2024/01/18 03:58:20;;;;;;;26.08;1.40;;;;;;;;;;4991516;28;20400;-40
2024/01/18 04:00:48;;;;;;;18.50;1.67;;;;;;;;;;4991792;28;20106;-43
2024/01/18 04:03:15;;;;;;;21.50;2.47;;;;;;;;;;4991984;28;20073;-48
2024/01/18 04:05:42;;;;;;;15.93;1.63;;;;;;;;;;4991565;28;20026;-45
2024/01/18 04:08:09;;;;;;;16.75;1.75;;;;;;;;;;4991190;28;20088;-45
2024/01/18 04:10:37;;;;;;;18.58;1.58;;;;;;;;;;4991651;28;20034;-45
2024/01/18 04:13:05;;;;;;;12.50;1.25;;;;;;;;;;4990362;28;20576;-40
2024/01/18 04:15:32;;;;;;;10.25;1.30;;;;;;;;;;4991624;28;20061;-43
2024/01/18 04:17:59;;;;;;;4.25;0.90;;;;;;;;;;4991501;28;20053;-46
2024/01/18 04:20:28;;;;;;;8.05;0.90;;;;;;;;;;4990336;28;20030;-44
2024/01/18 04:22:59;;;;;;;7.72;0.80;;;;;;;;;;4991662;28;20136;-44
2024/01/18 04:25:27;;;;;;;9.40;1.13;;;;;;;;;;4991713;28;20026;-45
2024/01/18 04:27:57;;;;;;;2.72;0.88;;;;;;;;;;5002284;28;20046;-46
2024/01/18 04:30:25;;;;;;;6.88;0.93;;;;;;;;;;5011766;28;20109;-57
2024/01/18 04:32:52;;;;;;;13.38;1.42;;;;;;;;;;5011702;28;20109;-44
2024/01/18 04:35:19;;;;;;;11.05;1.05;;;;;;;;;;5011114;28;20038;-42
2024/01/18 04:37:46;;;;;;;10.40;1.30;;;;;;;;;;5010655;28;20068;-40
2024/01/18 04:40:14;;;;;;;3.97;0.82;;;;;;;;;;5011195;28;20018;-43
2024/01/18 04:42:42;;;;;;;7.93;0.70;;;;;;;;;;4993454;28;20782;-43
2024/01/18 04:45:09;;;;;;;5.80;0.85;;;;;;;;;;5011589;28;20030;-48
2024/01/18 04:47:36;;;;;;;9.30;0.80;;;;;;;;;;5011156;28;20034;-46
2024/01/18 04:50:03;;;;;;;7.97;1.10;;;;;;;;;;5010986;28;20472;-52
2024/01/18 04:52:32;;;;;;;10.63;0.90;;;;;;;;;;5010970;28;20096;-43
2024/01/18 04:55:03;;;;;;;5.03;0.95;;;;;;;;;;5011026;28;20034;-40
2024/01/18 04:57:30;;;;;;;6.78;0.50;;;;;;;;;;5011061;28;20479;-41
2024/01/18 04:59:58;;;;;;;7.15;1.10;;;;;;;;;;5011162;28;20026;-43
2024/01/18 05:02:25;;;;;;;5.10;0.70;;;;;;;;;;5011188;28;20030;-44
2024/01/18 05:04:52;;;;;;;4.10;0.90;;;;;;;;;;5011448;28;20030;-46
2024/01/18 05:07:19;;;;;;;8.18;0.93;;;;;;;;;;5011207;28;20061;-47
2024/01/18 05:09:46;;;;;;;8.40;0.75;;;;;;;;;;5011388;28;20123;-46
2024/01/18 05:12:13;;;;;;;3.67;0.70;;;;;;;;;;5011082;28;20297;-48
2024/01/18 05:14:40;;;;;;;3.35;0.60;;;;;;;;;;5011394;28;20447;-41
2024/01/18 05:17:10;;;;;;;7.30;0.70;;;;;;;;;;5011277;28;20099;-43
2024/01/18 05:19:37;;;;;;;2.90;0.55;;;;;;;;;;4997288;28;20057;-39
2024/01/18 05:22:04;;;;;;;8.88;0.80;;;;;;;;;;5014950;28;20037;-39
2024/01/18 05:24:32;;;;;;;9.88;0.82;;;;;;;;;;5015057;28;20060;-43
2024/01/18 05:26:59;;;;;;;4.78;0.70;;;;;;;;;;5014836;28;20042;-41
2024/01/18 05:29:26;;;;;;;1.67;0.82;;;;;;;;;;5015124;28;20053;-52
2024/01/18 05:31:53;;;;;;;5.93;0.70;;;;;;;;;;5014856;28;20512;-54
2024/01/18 05:34:20;;;;;;;8.93;0.68;;;;;;;;;;5015039;28;20150;-55
2024/01/18 05:36:47;;;;;;;5.47;0.55;;;;;;;;;;5014920;28;20387;-49
2024/01/18 05:39:14;;;;;;;5.85;0.70;;;;;;;;;;5014960;28;20021;-50
2024/01/18 05:41:41;;;;;;;3.20;0.50;;;;;;;;;;5015012;28;20041;-50
2024/01/18 05:44:09;;;;;;;17.15;0.88;;;;;;;;;;5014809;28;20392;-45
2024/01/18 05:46:37;;;;;;;2.20;0.47;;;;;;;;;;5014689;28;20048;-45
2024/01/18 05:49:04;;;;;;;8.15;0.90;;;;;;;;;;5014799;28;20029;-41
2024/01/18 05:51:31;;;;;;;3.60;0.77;;;;;;;;;;5014673;28;20388;-41
2024/01/18 05:53:58;;;;;;;2.30;0.60;;;;;;;;;;5014688;28;20503;-43
2024/01/18 05:56:26;;;;;;;3.05;0.60;;;;;;;;;;5014448;28;20093;-43
2024/01/18 05:58:53;;;;;;;4.68;0.88;;;;;;;;;;5014483;28;20034;-42
2024/01/18 06:01:21;;;;;;;2.63;0.60;;;;;;;;;;5013199;28;20113;-40
2024/01/18 06:03:48;;;;;;;3.90;0.80;;;;;;;;;;5014442;28;20029;-38
2024/01/18 06:06:16;;;;;;;3.38;0.60;;;;;;;;;;4996645;28;20392;-46
2024/01/18 06:08:42;;;;;;;5.55;0.80;;;;;;;;;;5013601;28;20639;-38
2024/01/18 06:11:09;;;;;;;5.25;0.88;;;;;;;;;;5014131;28;20504;-44
2024/01/18 06:13:39;;;;;;;8.02;0.50;;;;;;;;;;5014342;28;20037;-46
2024/01/18 06:16:09;;;;;;;2.80;0.70;;;;;;;;;;5014134;28;20029;-39
2024/01/18 06:18:37;;;;;;;3.08;0.77;;;;;;;;;;5013988;28;20034;-39
2024/01/18 06:21:10;;;;;;;4.57;0.50;;;;;;;;;;5014145;28;20041;-38
2024/01/18 06:23:37;;;;;;;4.18;0.80;;;;;;;;;;5014185;28;20029;-42
2024/01/18 06:26:09;;;;;;;4.78;0.60;;;;;;;;;;5013999;28;20127;-37
2024/01/18 06:28:36;;;;;;;1.77;0.80;;;;;;;;;;5013786;28;20045;-39
2024/01/18 06:31:03;;;;;;;2.97;0.70;;;;;;;;;;5013042;28;20049;-39
2024/01/18 06:33:30;;;;;;;4.53;0.68;;;;;;;;;;5013643;28;20552;-39
2024/01/18 06:35:59;;;;;;;2.58;0.60;;;;;;;;;;5013828;28;20034;-38
2024/01/18 06:38:26;;;;;;;1.10;0.60;;;;;;;;;;5013760;28;20038;-39
2024/01/18 06:40:54;;;;;;;3.03;0.50;;;;;;;;;;5013798;28;20030;-40
2024/01/18 06:43:21;;;;;;;4.22;0.65;;;;;;;;;;5013804;28;20097;-40
2024/01/18 06:45:54;;;;;;;4.53;0.63;;;;;;;;;;5013515;28;20034;-38
2024/01/18 06:48:24;;;;;;;5.03;0.70;;;;;;;;;;5013535;28;20381;-39
2024/01/18 06:50:51;;;;;;;1.83;0.50;;;;;;;;;;5013556;28;20045;-37
2024/01/18 06:53:18;;;;;;;3.58;0.68;;;;;;;;;;4995975;28;20040;-42
2024/01/18 06:55:45;;;;;;;0.93;0.45;;;;;;;;;;5013402;28;20373;-40
2024/01/18 06:58:12;;;;;;;3.60;0.55;;;;;;;;;;5013418;28;20021;-44
2024/01/18 07:00:39;;;;;;;4.28;0.63;;;;;;;;;;5013418;28;20377;-37
2024/01/18 07:03:07;;;;;;;5.00;0.60;;;;;;;;;;5013410;28;20041;-38
2024/01/18 07:05:34;;;;;;;4.35;0.70;;;;;;;;;;5013278;28;20075;-44
2024/01/18 07:08:03;;;;;;;2.03;0.50;;;;;;;;;;5013255;28;20036;-39
2024/01/18 07:10:30;;;;;;;1.92;0.52;;;;;;;;;;5013207;28;20044;-39
2024/01/18 07:12:57;;;;;;;1.55;0.60;;;;;;;;;;5013114;28;20025;-49
2024/01/18 07:15:24;;;;;;;2.35;0.57;;;;;;;;;;5013059;28;20037;-41
2024/01/18 07:17:51;;;;;;;2.15;0.55;;;;;;;;;;5013029;28;20456;-45
2024/01/18 07:20:17;;;;;;;2.50;0.50;;;;;;;;;;5013118;28;20109;-44
2024/01/18 07:22:44;;;;;;;1.55;0.63;;;;;;;;;;5013235;28;20061;-45
2024/01/18 07:25:12;;;;;;;3.63;0.80;;;;;;;;;;5012835;28;20026;-42
2024/01/18 07:27:39;;;;;;;1.35;0.50;;;;;;;;;;5012558;28;20493;-43
2024/01/18 07:30:07;;;;;;;3.30;0.65;;;;;;;;;;5012799;28;20029;-43
2024/01/18 07:32:34;;;;;;;2.25;0.50;;;;;;;;;;5012848;28;20033;-40
2024/01/18 07:35:02;;;;;;;4.00;0.70;;;;;;;;;;5012727;28;20833;-39
2024/01/18 07:37:29;;;;;;;2.22;0.52;;;;;;;;;;4994893;28;20393;-40
2024/01/18 07:39:56;;;;;;;4.00;0.55;;;;;;;;;;5012730;28;20030;-49
2024/01/18 07:42:23;;;;;;;2.72;0.60;;;;;;;;;;5012522;28;20057;-45
2024/01/18 07:44:49;;;;;;;2.88;0.60;;;;;;;;;;5012603;28;20030;-39
2024/01/18 07:47:18;;;;;;;2.10;0.60;;;;;;;;;;5012274;28;20034;-45
2024/01/18 07:49:46;;;;;;;3.33;0.52;;;;;;;;;;5012607;28;20037;-39
2024/01/18 07:52:16;;;;;;;1.77;0.77;;;;;;;;;;5012026;28;20046;-38
2024/01/18 07:54:43;;;;;;;4.25;0.85;;;;;;;;;;5012424;28;20088;-44
2024/01/18 07:57:13;;;;;;;1.95;0.50;;;;;;;;;;5012173;28;20034;-36
2024/01/18 07:59:40;;;;;;;1.88;0.60;;;;;;;;;;5012560;28;20061;-39
2024/01/18 08:02:07;;;;;;;3.28;0.80;;;;;;;;;;5012388;28;20128;-38
2024/01/18 08:04:34;;;;;;;3.50;0.75;;;;;;;;;;5012185;28;20113;-41
2024/01/18 08:07:01;;;;;;;2.38;0.70;;;;;;;;;;5011927;28;20484;-43
2024/01/18 08:09:28;;;;;;;1.58;0.60;;;;;;;;;;5012280;28;20022;-43
2024/01/18 08:11:55;;;;;;;3.85;0.70;;;;;;;;;;5012109;28;20484;-43
2024/01/18 08:14:22;;;;;;;2.80;0.63;;;;;;;;;;5011977;28;20041;-44
2024/01/18 08:16:49;;;;;;;1.42;0.50;;;;;;;;;;5011994;28;20399;-44
2024/01/18 08:19:18;;;;;;;2.03;0.60;;;;;;;;;;5011936;28;20042;-44
2024/01/18 08:21:45;;;;;;;3.42;0.57;;;;;;;;;;5012048;28;20069;-43
2024/01/18 08:24:12;;;;;;;2.17;0.60;;;;;;;;;;4994428;28;20076;-44
2024/01/18 08:26:39;;;;;;;3.97;0.80;;;;;;;;;;5011467;28;20435;-44
2024/01/18 08:29:06;;;;;;;2.47;0.85;;;;;;;;;;5012105;28;20030;-43
2024/01/18 08:31:33;;;;;;;2.40;0.98;;;;;;;;;;5011812;28;20038;-46
2024/01/18 08:34:00;;;;;;;1.95;0.60;;;;;;;;;;5012085;28;20499;-44
2024/01/18 08:36:27;;;;;;;1.05;0.40;;;;;;;;;;5011856;28;20034;-44
2024/01/18 08:38:57;;;;;;;6.38;0.80;;;;;;;;;;5011925;28;20072;-44
2024/01/18 08:41:24;;;;;;;1.95;0.60;;;;;;;;;;5011956;28;20038;-44
2024/01/18 08:43:50;;;;;;;2.78;0.73;;;;;;;;;;5011762;28;20049;-43
2024/01/18 08:46:17;;;;;;;3.78;0.98;;;;;;;;;;5011731;28;20084;-45
2024/01/18 08:48:44;;;;;;;1.35;0.50;;;;;;;;;;4994165;28;20030;-42
2024/01/18 08:51:15;;;;;;;2.00;0.73;;;;;;;;;;5011481;28;20041;-42
2024/01/18 08:53:42;;;;;;;2.65;0.95;;;;;;;;;;5013992;28;20042;-43
2024/01/18 08:56:09;;;;;;;2.90;0.60;;;;;;;;;;4998057;28;20113;-43
2024/01/18 08:58:39;;;;;;;4.60;0.60;;;;;;;;;;5015784;28;20511;-43
2024/01/18 09:01:06;;;;;;;1.67;0.70;;;;;;;;;;5015753;28;20044;-42
2024/01/18 09:03:33;;;;;;;4.20;0.68;;;;;;;;;;5015681;28;20022;-43
2024/01/18 09:06:00;;;;;;;1.20;0.60;;;;;;;;;;5015614;28;20365;-42
2024/01/18 09:08:27;;;;;;;2.22;0.60;;;;;;;;;;5015275;28;20038;-42
2024/01/18 09:10:54;;;;;;;3.65;0.75;;;;;;;;;;5015503;28;20037;-43
2024/01/18 09:13:21;;;;;;;2.85;0.55;;;;;;;;;;5015559;28;20038;-43
2024/01/18 09:15:50;;;;;;;1.80;0.65;;;;;;;;;;5015399;28;20104;-42
2024/01/18 09:18:17;;;;;;;2.67;1.20;;;;;;;;;;5015211;28;20467;-42
2024/01/18 09:20:47;;;;;;;7.03;1.10;;;;;;;;;;5015252;28;20033;-43
2024/01/18 09:23:14;;;;;;;4.28;1.13;;;;;;;;;;5015345;28;20025;-42
2024/01/18 09:25:43;;;;;;;9.80;1.30;;;;;;;;;;5015198;28;20065;-42
2024/01/18 09:28:10;;;;;;;3.05;0.90;;;;;;;;;;5014960;28;20138;-43
2024/01/18 09:30:38;;;;;;;2.88;0.75;;;;;;;;;;5014769;28;20038;-43
2024/01/18 09:33:05;;;;;;;8.20;0.88;;;;;;;;;;5014471;28;20480;-42
2024/01/18 09:35:32;;;;;;;7.38;0.80;;;;;;;;;;5012236;28;20542;-41
2024/01/18 09:37:59;;;;;;;4.18;0.90;;;;;;;;;;5014602;28;20030;-41
2024/01/18 09:40:28;;;;;;;11.10;1.05;;;;;;;;;;5014952;28;20117;-41
2024/01/18 09:42:57;;;;;;;10.50;1.05;;;;;;;;;;5014344;28;20120;-41
2024/01/18 09:45:26;;;;;;;3.78;0.82;;;;;;;;;;5011981;28;20495;-41
2024/01/18 09:47:54;;;;;;;13.38;1.48;;;;;;;;;;5014595;28;20084;-42
2024/01/18 09:50:22;;;;;;;14.07;1.20;;;;;;;;;;5014787;28;20105;-41
2024/01/18 09:52:49;;;;;;;14.15;1.20;;;;;;;;;;5014587;28;20486;-42
2024/01/18 09:55:16;;;;;;;24.60;2.08;;;;;;;;;;5014275;28;20462;-43
2024/01/18 09:57:48;;;;;;;15.63;2.15;;;;;;;;;;5014231;28;20076;-42
2024/01/18 10:00:16;;;;;;;10.07;1.25;;;;;;;;;;5014625;28;20033;-43
2024/01/18 10:02:43;;;;;;;22.55;1.92;;;;;;;;;;5014535;28;20033;-43
2024/01/18 10:05:12;;;;;;;16.55;1.70;;;;;;;;;;5013138;28;20073;-43
2024/01/18 10:07:40;;;;;;;28.92;3.15;;;;;;;;;;5014328;28;20038;-43
2024/01/18 10:10:08;;;;;;;29.52;4.03;;;;;;;;;;5014357;28;20480;-43
2024/01/18 10:12:35;;;;;;;40.05;4.35;;;;;;;;;;5014365;28;20113;-43
2024/01/18 10:15:01;;;;;;;37.20;5.47;;;;;;;;;;5014388;28;20057;-43
2024/01/18 10:17:29;;;;;;;28.15;3.60;;;;;;;;;;5014286;28;20049;-43
2024/01/18 10:19:57;;;;;;;23.30;3.25;;;;;;;;;;5014246;28;20544;-45
2024/01/18 10:22:24;;;;;;;19.30;3.40;;;;;;;;;;5014223;28;20038;-43
2024/01/18 10:24:52;;;;;;;20.73;3.10;;;;;;;;;;5014210;28;20030;-43
2024/01/18 10:27:25;;;;;;;11.32;3.22;;;;;;;;;;5013907;28;20073;-42
2024/01/18 10:29:52;;;;;;;15.88;3.40;;;;;;;;;;5014084;28;20026;-43
2024/01/18 10:32:19;;;;;;;19.88;3.15;;;;;;;;;;5013988;28;20037;-43
2024/01/18 10:34:47;;;;;;;14.45;2.97;;;;;;;;;;5014067;28;20045;-42
2024/01/18 10:37:17;;;;;;;16.30;2.50;;;;;;;;;;5013666;28;20030;-42
2024/01/18 10:39:46;;;;;;;20.20;2.90;;;;;;;;;;5013925;28;20061;-43
2024/01/18 10:42:13;;;;;;;24.27;2.80;;;;;;;;;;5013775;28;20146;-43
2024/01/18 10:44:43;;;;;;;20.52;2.53;;;;;;;;;;5013829;28;20068;-43
2024/01/18 10:47:11;;;;;;;31.17;3.00;;;;;;;;;;5013685;28;20033;-43
2024/01/18 10:49:38;;;;;;;34.63;3.60;;;;;;;;;;5013702;28;20025;-43
2024/01/18 10:52:07;;;;;;;30.88;3.33;;;;;;;;;;5013561;28;20049;-43
2024/01/18 10:54:34;;;;;;;21.77;2.20;;;;;;;;;;5013515;28;20136;-43
2024/01/18 10:57:01;;;;;;;24.92;2.30;;;;;;;;;;5013368;28;20030;-43
2024/01/18 10:59:31;;;;;;;29.13;2.47;;;;;;;;;;5013662;28;20084;-43
2024/01/18 11:01:59;;;;;;;23.00;2.20;;;;;;;;;;5013405;28;20045;-43
2024/01/18 11:04:33;;;;;;;36.38;2.65;;;;;;;;;;5013508;28;20022;-43
2024/01/18 11:07:01;;;;;;;24.65;2.60;;;;;;;;;;5013267;28;20057;-43
2024/01/18 11:09:30;;;;;;;19.85;2.35;;;;;;;;;;5013358;28;20451;-43
2024/01/18 11:11:58;;;;;;;25.17;2.75;;;;;;;;;;5013155;28;20033;-43
2024/01/18 11:14:27;;;;;;;18.85;2.30;;;;;;;;;;5013308;28;20026;-43
2024/01/18 11:16:54;;;;;;;24.58;2.58;;;;;;;;;;5012742;28;20049;-43
2024/01/18 11:19:57;;;;;;;35.17;2.83;;;;;;;;;;5013149;28;20018;-43
2024/01/18 11:22:30;;;;;;;14.35;1.60;;;;;;;;;;4933223;29;20516;-42
2024/01/18 11:25:33;;;;;;;18.05;1.67;;;;;;;;;;5001888;28;20041;-43
2024/01/18 11:28:01;;;;;;;18.80;1.45;;;;;;;;;;4932974;29;20059;-42
2024/01/18 11:30:35;;;;;;;7.57;1.17;;;;;;;;;;4997988;28;20418;-43
2024/01/18 11:33:02;;;;;;;12.52;1.45;;;;;;;;;;5012870;28;20396;-42
2024/01/18 11:35:31;;;;;;;12.73;1.40;;;;;;;;;;5012919;28;20553;-42
2024/01/18 11:38:17;;;;;;;13.38;1.83;;;;;;;;;;5012678;28;20049;-43
2024/01/18 11:40:44;;;;;;;10.40;1.55;;;;;;;;;;5012142;28;20129;-44
2024/01/18 11:43:12;;;;;;;24.15;2.33;;;;;;;;;;5012149;28;20522;-43
2024/01/18 11:45:39;;;;;;;27.02;2.72;;;;;;;;;;5012771;28;20026;-43
2024/01/18 11:48:06;;;;;;;27.75;2.30;;;;;;;;;;5012605;28;20018;-42
2024/01/18 11:50:33;;;;;;;13.20;2.10;;;;;;;;;;5012514;28;20038;-43
2024/01/18 11:53:00;;;;;;;13.23;2.00;;;;;;;;;;5012503;28;20504;-43
2024/01/18 11:55:31;;;;;;;15.48;1.90;;;;;;;;;;5012595;28;20480;-43
2024/01/18 11:58:01;;;;;;;13.82;1.98;;;;;;;;;;5012315;28;20034;-43
2024/01/18 12:00:28;;;;;;;16.98;2.03;;;;;;;;;;5012322;28;20934;-43
2024/01/18 12:02:56;;;;;;;19.73;2.40;;;;;;;;;;5012440;28;20379;-43
2024/01/18 12:05:23;;;;;;;13.52;1.95;;;;;;;;;;5012376;28;20022;-44
2024/01/18 12:07:50;;;;;;;12.55;2.08;;;;;;;;;;5012283;28;20028;-42
2024/01/18 12:10:17;;;;;;;10.75;2.00;;;;;;;;;;5012226;28;20056;-43
2024/01/18 12:12:44;;;;;;;10.10;1.90;;;;;;;;;;5012267;28;20113;-43
2024/01/18 12:15:16;;;;;;;21.02;3.05;;;;;;;;;;5012304;28;20104;-43
2024/01/18 12:17:44;;;;;;;12.82;1.98;;;;;;;;;;5012081;28;20060;-44
2024/01/18 12:20:17;;;;;;;22.88;1.95;;;;;;;;;;5011924;28;20065;-43
2024/01/18 12:22:44;;;;;;;22.35;2.47;;;;;;;;;;5012124;28;20037;-44
2024/01/18 12:25:11;;;;;;;8.20;1.60;;;;;;;;;;5012041;28;20500;-43
2024/01/18 12:27:38;;;;;;;6.63;1.30;;;;;;;;;;5011083;28;20410;-43
2024/01/18 12:30:06;;;;;;;29.83;2.78;;;;;;;;;;5012059;28;20092;-44
2024/01/18 12:32:36;;;;;;;31.20;3.80;;;;;;;;;;5011892;28;20022;-43
2024/01/18 12:35:03;;;;;;;39.92;3.58;;;;;;;;;;5011808;28;20041;-43
2024/01/18 12:37:33;;;;;;;32.35;3.20;;;;;;;;;;5011125;28;20073;-43
2024/01/18 12:40:00;;;;;;;36.00;3.80;;;;;;;;;;5011430;28;20096;-43
2024/01/18 12:42:27;;;;;;;33.92;3.55;;;;;;;;;;5008448;28;20035;-43
2024/01/18 12:44:56;;;;;;;20.52;2.85;;;;;;;;;;5000637;28;20038;-43
2024/01/18 12:47:23;;;;;;;27.83;3.13;;;;;;;;;;5011196;28;20041;-41
2024/01/18 12:49:54;;;;;;;27.30;3.35;;;;;;;;;;5011471;28;20381;-41
2024/01/18 12:52:21;;;;;;;17.90;2.65;;;;;;;;;;4998978;28;20145;-40
2024/01/18 12:54:48;;;;;;;19.02;2.50;;;;;;;;;;5011367;28;20503;-40
2024/01/18 12:57:15;;;;;;;29.50;2.92;;;;;;;;;;5008153;28;20480;-40
2024/01/18 12:59:42;;;;;;;17.65;2.53;;;;;;;;;;5004060;28;20030;-40
2024/01/18 13:02:09;;;;;;;18.23;2.60;;;;;;;;;;5011326;28;20084;-40
2024/01/18 13:04:38;;;;;;;18.27;2.28;;;;;;;;;;5011313;28;20567;-40
2024/01/18 13:07:11;;;;;;;23.90;3.08;;;;;;;;;;5011313;28;20029;-40
2024/01/18 13:09:38;;;;;;;29.35;4.05;;;;;;;;;;5011125;28;20033;-40
2024/01/18 13:12:05;;;;;;;31.77;3.22;;;;;;;;;;5009874;28;20108;-40
2024/01/18 13:14:33;;;;;;;20.88;3.97;;;;;;;;;;5002240;28;20037;-40
2024/01/18 13:17:00;;;;;;;28.17;3.10;;;;;;;;;;5009572;28;20038;-40
2024/01/18 13:19:28;;;;;;;47.70;4.68;;;;;;;;;;5011278;28;20022;-40
2024/01/18 13:21:55;;;;;;;31.25;3.50;;;;;;;;;;5007240;28;20040;-40
2024/01/18 13:24:22;;;;;;;22.40;2.22;;;;;;;;;;5011547;28;20687;-40
2024/01/18 13:26:50;;;;;;;26.38;3.10;;;;;;;;;;5010075;28;20042;-40
2024/01/18 13:29:17;;;;;;;22.48;2.95;;;;;;;;;;5010622;28;20038;-41
2024/01/18 13:31:44;;;;;;;21.23;2.60;;;;;;;;;;5010321;28;20038;-40
2024/01/18 13:34:12;;;;;;;28.65;3.78;;;;;;;;;;5010764;28;20046;-40
2024/01/18 13:36:39;;;;;;;22.58;4.75;;;;;;;;;;5005598;28;20058;-40
2024/01/18 13:39:08;;;;;;;25.20;8.10;;;;;;;;;;5002628;28;20034;-40
2024/01/18 13:41:35;;;;;;;49.80;7.60;;;;;;;;;;4999956;28;20042;-40
2024/01/18 13:44:03;;;;;;;36.28;6.22;;;;;;;;;;5004201;28;20041;-40
2024/01/18 13:46:31;;;;;;;27.67;5.60;;;;;;;;;;5009082;28;20061;-39
2024/01/18 13:48:58;;;;;;;29.00;4.15;;;;;;;;;;5013532;28;20388;-40
2024/01/18 13:51:25;;;;;;;30.33;4.40;;;;;;;;;;5014413;28;20034;-40
2024/01/18 13:53:52;;;;;;;31.65;5.45;;;;;;;;;;5014165;28;20112;-40
2024/01/18 13:56:22;;;;;;;27.50;4.47;;;;;;;;;;5014026;28;20089;-40
2024/01/18 13:58:49;;;;;;;35.13;4.70;;;;;;;;;;5014430;28;20064;-39
2024/01/18 14:01:16;;;;;;;28.48;4.03;;;;;;;;;;5012128;28;20080;-40
2024/01/18 14:03:45;;;;;;;22.55;3.15;;;;;;;;;;5014156;28;20030;-40
2024/01/18 14:06:16;;;;;;;47.42;4.50;;;;;;;;;;5013838;28;20041;-40
2024/01/18 14:08:49;;;;;;;35.65;4.10;;;;;;;;;;5010214;28;20062;-40
2024/01/18 14:11:17;;;;;;;31.95;3.42;;;;;;;;;;5002614;28;20508;-40
2024/01/18 14:13:44;;;;;;;43.15;3.78;;;;;;;;;;5006274;28;20443;-40
2024/01/18 14:16:14;;;;;;;28.73;2.85;;;;;;;;;;5008207;28;20030;-40
2024/01/18 14:18:42;;;;;;;21.13;2.95;;;;;;;;;;5008631;28;20128;-40
2024/01/18 14:21:09;;;;;;;43.97;4.20;;;;;;;;;;5008380;28;20034;-40
2024/01/18 14:23:36;;;;;;;52.45;4.55;;;;;;;;;;5004917;28;20087;-40
2024/01/18 14:26:03;;;;;;;59.42;4.85;;;;;;;;;;5007656;28;20087;-40
2024/01/18 14:28:30;;;;;;;70.95;7.07;;;;;;;;;;5013500;28;20054;-40
2024/01/18 14:30:57;;;;;;;67.82;6.18;;;;;;;;;;5013753;28;20743;-40
2024/01/18 14:33:24;;;;;;;30.60;3.67;;;;;;;;;;5013412;28;20080;-40
2024/01/18 14:35:51;;;;;;;56.03;5.20;;;;;;;;;;5013569;28;20042;-40
2024/01/18 14:38:18;;;;;;;35.95;4.35;;;;;;;;;;5013429;28;20393;-40
2024/01/18 14:40:46;;;;;;;30.35;3.30;;;;;;;;;;5011701;28;20030;-40